Terminal Aerodrome Forecast
Issued by NWS Boston, MA

Home | Current Version | Previous Version | Text Only | Print | Product List | Glossary On
Versions: 1 2 3 4 5 6 7 8 9 10 11 12 13 14 15 16 17 18 19 20
000
FTUS41 KBOX 232341
TAFBDL
TAF
KBDL 232341Z 2400/2506 18007KT P6SM FEW060
     FM240300 19005KT 4SM BR BKN060
     FM241000 00000KT 1SM BR BKN003
     FM241500 18005KT P6SM BKN010
     FM241800 19006KT P6SM BKN090
     FM242300 18007KT P6SM BKN015
     FM250100 18006KT 4SM BR BKN010=

USA.gov is the U.S. government's official web portal to all federal, state and local government web resources and services.